createdAt,value
2022-09-21T00:00:05.486Z,7.59
2022-09-21T00:01:26.478Z,7.63
2022-09-21T00:02:29.471Z,7.56
2022-09-21T00:03:35.575Z,7.56
2022-09-21T00:04:38.436Z,7.58
2022-09-21T00:05:41.580Z,7.49
2022-09-21T00:06:44.573Z,7.47
2022-09-21T00:07:47.488Z,7.41
2022-09-21T00:08:50.448Z,7.38
2022-09-21T00:09:53.276Z,7.48
2022-09-21T00:10:56.083Z,7.45
2022-09-21T00:11:58.905Z,7.36
2022-09-21T00:13:04.905Z,7.57
2022-09-21T00:14:11.862Z,7.49
2022-09-21T00:15:20.712Z,7.45
2022-09-21T00:16:24.499Z,7.42
2022-09-21T00:17:27.691Z,7.46
2022-09-21T00:18:31.144Z,7.44
2022-09-21T00:19:39.375Z,7.46
2022-09-21T00:20:43.886Z,7.39
2022-09-21T00:21:46.693Z,7.38
2022-09-21T00:22:49.566Z,7.49
2022-09-21T00:23:52.457Z,7.52
2022-09-21T00:24:56.408Z,7.53
2022-09-21T00:26:26.833Z,7.42
2022-09-21T00:27:31.143Z,7.32
2022-09-21T00:28:34.699Z,7.43
2022-09-21T00:29:37.585Z,7.36
2022-09-21T00:30:40.599Z,7.26
2022-09-21T00:31:43.641Z,7.46
2022-09-21T00:32:46.567Z,7.30
2022-09-21T00:33:51.640Z,7.31
2022-09-21T00:34:54.478Z,7.31
2022-09-21T00:36:06.124Z,7.28
2022-09-21T00:37:09.604Z,7.36
2022-09-21T00:38:12.397Z,7.36
2022-09-21T00:39:15.318Z,7.18
2022-09-21T00:40:18.762Z,7.16
2022-09-21T00:41:21.758Z,7.16
2022-09-21T00:42:28.903Z,7.29
2022-09-21T00:43:36.078Z,7.29
2022-09-21T00:44:39.075Z,7.18
2022-09-21T00:45:44.130Z,7.21
2022-09-21T00:46:50.137Z,7.24
2022-09-21T00:47:53.347Z,7.19
2022-09-21T00:48:57.734Z,7.20
2022-09-21T00:50:06.817Z,7.13
2022-09-21T00:51:09.797Z,7.15
2022-09-21T00:52:15.134Z,7.36
2022-09-21T00:53:18.009Z,7.34
2022-09-21T00:54:27.295Z,7.40
2022-09-21T00:55:38.995Z,7.15
2022-09-21T00:56:44.968Z,7.03
2022-09-21T00:57:52.743Z,7.18
2022-09-21T00:58:56.147Z,7.04
2022-09-21T01:00:03.253Z,7.12
2022-09-21T01:01:06.967Z,7.12
2022-09-21T01:02:09.939Z,6.98
2022-09-21T01:03:13.553Z,6.96
2022-09-21T01:04:19.138Z,7.14
2022-09-21T01:05:22.397Z,7.08
2022-09-21T01:06:26.974Z,7.07
2022-09-21T01:07:33.577Z,7.14
2022-09-21T01:08:38.165Z,7.00
2022-09-21T01:09:43.066Z,7.05
2022-09-21T01:11:17.913Z,7.11
2022-09-21T01:12:30.652Z,7.07
2022-09-21T01:13:58.233Z,7.09
2022-09-21T01:15:14.705Z,7.14
2022-09-21T01:16:34.135Z,7.18
2022-09-21T01:17:52.813Z,7.37
2022-09-21T01:19:18.993Z,7.16
2022-09-21T01:20:55.341Z,7.10
2022-09-21T01:22:16.660Z,7.02
2022-09-21T01:23:26.926Z,6.95
2022-09-21T01:25:01.600Z,6.96
2022-09-21T01:26:26.863Z,6.92
2022-09-21T01:27:52.768Z,6.89
2022-09-21T01:29:34.221Z,7.07
2022-09-21T01:30:45.675Z,7.14
2022-09-21T01:32:11.599Z,7.14
2022-09-21T01:33:23.507Z,7.13
2022-09-21T01:34:33.977Z,6.97
2022-09-21T01:35:44.501Z,7.18
2022-09-21T01:36:49.891Z,7.10
2022-09-21T01:38:01.247Z,7.10
2022-09-21T01:39:10.041Z,7.14
2022-09-21T01:40:24.046Z,6.91
2022-09-21T01:41:30.847Z,6.95
2022-09-21T01:42:35.585Z,7.14
2022-09-21T01:43:43.802Z,7.18
2022-09-21T01:44:49.294Z,7.16
2022-09-21T01:45:56.702Z,7.16
2022-09-21T01:47:03.048Z,7.07
2022-09-21T01:48:06.264Z,6.93
2022-09-21T01:49:13.619Z,6.89
2022-09-21T01:50:18.585Z,6.88
2022-09-21T01:51:25.504Z,6.74
2022-09-21T01:52:56.686Z,6.73
2022-09-21T01:54:03.382Z,6.70
2022-09-21T01:55:28.416Z,6.68
2022-09-21T01:56:36.928Z,6.64
2022-09-21T01:57:55.136Z,6.54
2022-09-21T01:59:16.427Z,6.57
2022-09-21T02:00:19.310Z,6.63
2022-09-21T02:01:25.925Z,6.69
2022-09-21T02:02:42.993Z,6.69
2022-09-21T02:03:51.168Z,6.67
2022-09-21T02:04:54.133Z,6.68
2022-09-21T02:05:58.771Z,6.79
2022-09-21T02:07:02.732Z,6.76
2022-09-21T02:08:07.089Z,6.81
2022-09-21T02:09:10.909Z,6.91
2022-09-21T02:10:21.335Z,6.87
2022-09-21T02:11:24.378Z,6.84
2022-09-21T02:12:27.260Z,6.93
2022-09-21T02:13:34.976Z,6.95
2022-09-21T02:14:38.811Z,7.14
2022-09-21T02:16:03.580Z,7.11
2022-09-21T02:17:21.465Z,7.01
2022-09-21T02:18:51.586Z,7.06
2022-09-21T02:20:13.404Z,7.20
2022-09-21T02:21:28.122Z,7.22
2022-09-21T02:22:43.681Z,7.20
2022-09-21T02:23:58.367Z,7.21
2022-09-21T02:25:16.616Z,7.23
2022-09-21T02:26:29.962Z,7.42
2022-09-21T02:27:37.137Z,7.51
2022-09-21T02:28:56.168Z,7.38
2022-09-21T02:30:04.816Z,7.48
2022-09-21T02:31:21.359Z,7.45
2022-09-21T02:32:35.672Z,7.55
2022-09-21T02:34:06.275Z,7.50
2022-09-21T02:35:40.898Z,7.62
2022-09-21T02:36:58.584Z,7.63
2022-09-21T02:38:09.342Z,7.52
2022-09-21T02:39:32.277Z,7.48
2022-09-21T02:40:53.846Z,7.46
2022-09-21T02:42:13.291Z,7.44
2022-09-21T02:43:23.572Z,7.61
2022-09-21T02:44:51.227Z,7.69
2022-09-21T02:46:09.200Z,7.66
2022-09-21T02:47:38.191Z,7.64
2022-09-21T02:48:49.922Z,7.61
2022-09-21T02:49:55.084Z,7.86
2022-09-21T02:51:03.807Z,7.87
2022-09-21T02:52:12.641Z,7.91
2022-09-21T02:53:23.047Z,7.86
2022-09-21T02:54:29.715Z,8.08
2022-09-21T02:55:34.156Z,8.08
2022-09-21T02:56:38.465Z,8.07
2022-09-21T02:57:41.820Z,8.00
2022-09-21T02:58:50.159Z,7.82
2022-09-21T02:59:53.333Z,7.76
2022-09-21T03:00:57.445Z,7.74
2022-09-21T03:02:03.562Z,7.89
2022-09-21T03:03:24.994Z,7.91
2022-09-21T03:04:29.508Z,7.90
2022-09-21T03:05:32.331Z,7.92
2022-09-21T03:06:38.991Z,8.06
2022-09-21T03:07:41.893Z,8.03
2022-09-21T03:08:44.888Z,7.91
2022-09-21T03:09:51.535Z,7.89
2022-09-21T03:10:54.520Z,7.92
2022-09-21T03:11:57.322Z,7.97
2022-09-21T03:13:00.389Z,8.00
2022-09-21T03:14:08.927Z,7.94
2022-09-21T03:15:11.758Z,7.91
2022-09-21T03:16:18.527Z,7.80
2022-09-21T03:17:21.489Z,7.86
2022-09-21T03:18:24.256Z,7.94
2022-09-21T03:19:28.698Z,7.96
2022-09-21T03:20:34.913Z,8.02
2022-09-21T03:21:42.297Z,8.06
2022-09-21T03:22:47.256Z,8.04
2022-09-21T03:23:50.054Z,8.10
2022-09-21T03:24:53.592Z,8.27
2022-09-21T03:25:56.521Z,8.20
2022-09-21T03:26:59.796Z,8.09
2022-09-21T03:28:02.850Z,8.17
2022-09-21T03:29:05.967Z,7.98
2022-09-21T03:30:09.311Z,8.20
2022-09-21T03:31:12.581Z,8.06
2022-09-21T03:32:15.956Z,8.09
2022-09-21T03:33:21.839Z,7.95
2022-09-21T03:34:30.462Z,8.04
2022-09-21T03:35:34.645Z,7.95
2022-09-21T03:36:37.335Z,8.04
2022-09-21T03:37:41.409Z,7.92
2022-09-21T03:38:44.652Z,7.90
2022-09-21T03:39:47.547Z,8.10
2022-09-21T03:40:51.162Z,8.08
2022-09-21T03:41:57.559Z,8.02
2022-09-21T03:43:00.524Z,7.83
2022-09-21T03:44:03.371Z,7.83
2022-09-21T03:45:06.798Z,7.73
2022-09-21T03:46:10.329Z,7.81
2022-09-21T03:47:13.246Z,7.88
2022-09-21T03:48:16.931Z,7.91
2022-09-21T03:49:20.359Z,7.90
2022-09-21T03:50:24.139Z,7.88
2022-09-21T03:51:27.299Z,7.90
2022-09-21T03:52:30.284Z,7.84
2022-09-21T03:53:33.113Z,7.72
2022-09-21T03:54:39.552Z,7.72
2022-09-21T03:55:42.860Z,7.79
2022-09-21T03:56:45.662Z,7.47
2022-09-21T03:57:48.846Z,7.47
2022-09-21T03:58:51.626Z,7.52
2022-09-21T03:59:54.571Z,7.64
2022-09-21T04:01:02.698Z,7.73
2022-09-21T04:02:05.641Z,7.83
2022-09-21T04:03:09.465Z,7.85
2022-09-21T04:04:12.303Z,7.89
2022-09-21T04:05:16.685Z,7.75
2022-09-21T04:06:19.721Z,7.72
2022-09-21T04:07:22.529Z,7.69
2022-09-21T04:08:25.418Z,7.56
2022-09-21T04:09:28.269Z,7.67
2022-09-21T04:10:33.756Z,7.57
2022-09-21T04:11:36.615Z,7.32
2022-09-21T04:12:43.655Z,7.36
2022-09-21T04:13:51.338Z,7.41
2022-09-21T04:14:54.051Z,7.38
2022-09-21T04:15:57.309Z,7.33
2022-09-21T04:17:00.197Z,7.34
2022-09-21T04:18:03.088Z,7.41
2022-09-21T04:19:06.086Z,7.35
2022-09-21T04:20:09.937Z,7.21
2022-09-21T04:21:12.661Z,7.27
2022-09-21T04:22:15.868Z,7.33
2022-09-21T04:23:19.484Z,7.29
2022-09-21T04:24:22.979Z,7.15
2022-09-21T04:25:30.438Z,6.94
2022-09-21T04:26:35.275Z,6.93
2022-09-21T04:27:38.241Z,6.94
2022-09-21T04:28:41.065Z,7.07
2022-09-21T04:29:44.617Z,7.04
2022-09-21T04:30:47.484Z,7.23
2022-09-21T04:31:50.373Z,7.35
2022-09-21T04:32:53.539Z,7.34
2022-09-21T04:33:57.836Z,7.14
2022-09-21T04:35:00.635Z,7.06
2022-09-21T04:36:03.582Z,7.15
2022-09-21T04:37:13.438Z,7.13
2022-09-21T04:38:16.403Z,7.30
2022-09-21T04:39:19.402Z,7.35
2022-09-21T04:40:23.552Z,7.37
2022-09-21T04:41:27.364Z,7.46
2022-09-21T04:42:30.459Z,7.59
2022-09-21T04:43:33.683Z,7.63
2022-09-21T04:44:37.315Z,7.57
2022-09-21T04:45:40.803Z,7.63
2022-09-21T04:46:43.588Z,7.76
2022-09-21T04:47:46.540Z,7.62
2022-09-21T04:48:50.150Z,7.57
2022-09-21T04:49:53.784Z,7.51
2022-09-21T04:50:56.801Z,7.31
2022-09-21T04:52:00.245Z,7.23
2022-09-21T04:53:03.191Z,7.16
2022-09-21T04:54:06.876Z,7.24
2022-09-21T04:55:09.833Z,7.29
2022-09-21T04:56:16.144Z,7.16
2022-09-21T04:57:18.990Z,7.21
2022-09-21T04:58:26.550Z,7.23
2022-09-21T04:59:29.278Z,7.26
2022-09-21T05:00:32.293Z,7.40
2022-09-21T05:01:35.271Z,7.35
2022-09-21T05:02:38.247Z,7.44
2022-09-21T05:03:41.116Z,7.40
2022-09-21T05:04:47.509Z,7.49
2022-09-21T05:05:57.551Z,7.38
2022-09-21T05:07:00.431Z,7.38
2022-09-21T05:08:03.344Z,7.50
2022-09-21T05:09:24.587Z,7.56
2022-09-21T05:10:28.324Z,7.69
2022-09-21T05:11:31.143Z,7.77
2022-09-21T05:12:38.534Z,7.75
2022-09-21T05:13:43.296Z,7.79
2022-09-21T05:14:46.145Z,7.79
2022-09-21T05:15:48.887Z,7.85
2022-09-21T05:16:52.098Z,7.86
2022-09-21T05:19:03.784Z,8.09
2022-09-21T05:20:07.519Z,8.07
2022-09-21T05:21:13.150Z,8.23
2022-09-21T05:22:16.405Z,8.21
2022-09-21T05:23:19.397Z,8.22
2022-09-21T05:24:22.389Z,8.20
2022-09-21T05:25:25.157Z,8.18
2022-09-21T05:26:27.911Z,8.21
2022-09-21T05:27:30.867Z,8.31
2022-09-21T05:28:37.819Z,8.46
2022-09-21T05:29:43.507Z,8.46
2022-09-21T05:31:16.249Z,8.42
2022-09-21T05:32:29.649Z,8.52
2022-09-21T05:33:36.012Z,8.53
2022-09-21T05:35:19.905Z,8.48
2022-09-21T05:36:44.053Z,8.39
2022-09-21T05:38:08.862Z,8.39
2022-09-21T05:39:12.899Z,8.47
2022-09-21T05:40:16.193Z,8.38
2022-09-21T05:41:19.256Z,8.33
2022-09-21T05:42:22.369Z,8.35
2022-09-21T05:43:25.649Z,8.19
2022-09-21T05:44:28.629Z,8.12
2022-09-21T05:45:31.892Z,8.20
2022-09-21T05:46:56.206Z,8.28
2022-09-21T05:48:16.937Z,8.13
2022-09-21T05:49:30.188Z,8.07
2022-09-21T05:50:49.475Z,8.14
2022-09-21T05:52:24.011Z,8.20
2022-09-21T05:54:07.338Z,8.28
2022-09-21T05:55:32.230Z,8.32
2022-09-21T05:56:53.335Z,8.39
2022-09-21T05:58:32.734Z,8.26
2022-09-21T05:59:41.913Z,8.48
2022-09-21T06:00:56.275Z,8.61
2022-09-21T06:02:26.718Z,8.67
2022-09-21T06:03:31.385Z,8.53
2022-09-21T06:04:34.486Z,8.42
2022-09-21T06:05:37.359Z,8.46
2022-09-21T06:06:40.390Z,8.59
2022-09-21T06:07:43.376Z,8.67
2022-09-21T06:08:46.278Z,8.50
2022-09-21T06:09:49.128Z,8.64
2022-09-21T06:10:53.022Z,8.81
2022-09-21T06:11:55.911Z,8.94
2022-09-21T06:12:58.870Z,8.85
2022-09-21T06:14:03.288Z,8.89
2022-09-21T06:15:07.836Z,8.88
2022-09-21T06:16:11.070Z,8.96
2022-09-21T06:17:14.082Z,8.97
2022-09-21T06:18:18.096Z,9.09
2022-09-21T06:19:21.691Z,9.13
2022-09-21T06:20:25.362Z,9.06
2022-09-21T06:21:28.347Z,9.10
2022-09-21T06:22:31.229Z,9.19
2022-09-21T06:24:42.076Z,9.29
2022-09-21T06:25:45.016Z,9.28
2022-09-21T06:26:48.024Z,9.36
2022-09-21T06:27:50.947Z,9.30
2022-09-21T06:28:54.006Z,9.22
2022-09-21T06:29:57.401Z,9.21
2022-09-21T06:31:00.732Z,9.31
2022-09-21T06:32:05.246Z,9.46
2022-09-21T06:33:08.704Z,9.41
2022-09-21T06:34:11.525Z,9.50
2022-09-21T06:35:14.473Z,9.60
2022-09-21T06:36:17.946Z,9.71
2022-09-21T06:37:21.060Z,9.82
2022-09-21T06:38:26.051Z,9.89
2022-09-21T06:39:29.012Z,9.94
2022-09-21T06:40:33.911Z,9.96
2022-09-21T06:41:38.648Z,9.93
2022-09-21T06:42:41.608Z,10.17
2022-09-21T06:43:45.970Z,10.24
2022-09-21T06:44:48.771Z,10.30
2022-09-21T06:45:57.663Z,10.32
2022-09-21T06:47:00.575Z,10.55
2022-09-21T06:48:03.519Z,10.62
2022-09-21T06:49:06.585Z,10.82
2022-09-21T06:50:09.616Z,11.00
2022-09-21T06:51:12.484Z,11.08
2022-09-21T06:52:15.529Z,11.00
2022-09-21T06:53:18.705Z,11.08
2022-09-21T06:54:22.363Z,11.03
2022-09-21T06:55:25.291Z,11.21
2022-09-21T06:56:28.597Z,11.13
2022-09-21T06:57:31.814Z,11.33
2022-09-21T06:58:35.803Z,11.45
2022-09-21T06:59:38.558Z,11.40
2022-09-21T07:00:41.482Z,11.43
2022-09-21T07:01:44.697Z,11.59
2022-09-21T07:02:47.504Z,11.62
2022-09-21T07:03:51.594Z,11.56
2022-09-21T07:04:55.126Z,11.82
2022-09-21T07:05:58.138Z,11.86
2022-09-21T07:07:04.125Z,11.86
2022-09-21T07:10:05.118Z,12.00
2022-09-21T07:10:53.954Z,12.31
2022-09-21T07:11:58.429Z,12.27
2022-09-21T07:13:04.524Z,12.29
2022-09-21T07:14:07.620Z,12.20
2022-09-21T07:15:10.987Z,12.32
2022-09-21T07:16:14.678Z,12.22
2022-09-21T07:17:17.570Z,12.35
2022-09-21T07:18:21.597Z,12.59
2022-09-21T07:19:24.788Z,12.72
2022-09-21T07:20:27.653Z,12.96
2022-09-21T07:22:38.586Z,13.34
2022-09-21T07:23:41.847Z,13.40
2022-09-21T07:24:45.366Z,13.45
2022-09-21T07:25:50.815Z,13.41
2022-09-21T07:26:53.654Z,13.61
2022-09-21T07:27:56.679Z,13.52
2022-09-21T07:28:59.643Z,13.56
2022-09-21T07:30:02.582Z,13.76
2022-09-21T07:31:16.798Z,13.85
2022-09-21T07:32:20.248Z,13.78
2022-09-21T07:33:23.006Z,13.77
2022-09-21T07:34:25.901Z,14.02
2022-09-21T07:35:28.749Z,14.23
2022-09-21T07:36:31.726Z,14.30
2022-09-21T07:37:34.426Z,14.75
2022-09-21T07:38:40.224Z,14.89
2022-09-21T07:39:43.417Z,14.97
2022-09-21T07:40:46.429Z,14.62
2022-09-21T07:41:49.462Z,14.83
2022-09-21T07:42:52.450Z,14.81
2022-09-21T07:43:55.614Z,14.88
2022-09-21T07:45:03.887Z,14.71
2022-09-21T07:46:09.538Z,14.75
2022-09-21T07:47:13.658Z,14.84
2022-09-21T07:48:16.862Z,15.10
2022-09-21T07:49:19.866Z,15.15
2022-09-21T07:50:23.843Z,15.40
2022-09-21T07:51:26.761Z,15.34
2022-09-21T07:52:29.577Z,15.24
2022-09-21T07:53:33.996Z,15.40
2022-09-21T07:54:37.324Z,15.09
2022-09-21T07:55:43.739Z,15.14
2022-09-21T07:57:06.592Z,15.25
2022-09-21T07:58:28.244Z,15.51
2022-09-21T07:59:33.211Z,15.58
2022-09-21T08:00:36.732Z,15.14
2022-09-21T08:01:42.176Z,15.15
2022-09-21T08:02:47.685Z,15.04
2022-09-21T08:03:52.456Z,14.87
2022-09-21T08:04:55.617Z,14.69
2022-09-21T08:06:00.036Z,14.60
2022-09-21T08:07:02.854Z,14.66
2022-09-21T08:08:05.761Z,14.24
2022-09-21T08:09:08.934Z,13.78
2022-09-21T08:10:11.962Z,13.96
2022-09-21T08:11:17.103Z,14.09
2022-09-21T08:12:21.058Z,14.28
2022-09-21T08:13:25.648Z,14.63
2022-09-21T08:14:29.479Z,14.94
2022-09-21T08:15:48.808Z,14.99
2022-09-21T08:16:52.589Z,14.98
2022-09-21T08:17:55.400Z,15.40
2022-09-21T08:18:58.569Z,15.60
2022-09-21T08:20:02.094Z,15.43
2022-09-21T08:21:05.247Z,15.77
2022-09-21T08:22:08.618Z,16.03
2022-09-21T08:23:12.114Z,16.27
2022-09-21T08:24:15.264Z,16.27
2022-09-21T08:25:18.171Z,16.51
2022-09-21T08:26:21.583Z,16.64
2022-09-21T08:27:25.867Z,16.87
2022-09-21T08:28:31.636Z,17.28
2022-09-21T08:29:36.078Z,17.70
2022-09-21T08:30:39.065Z,17.66
2022-09-21T08:31:42.018Z,17.59
2022-09-21T08:32:51.380Z,17.67
2022-09-21T08:33:56.341Z,17.69
2022-09-21T08:34:59.246Z,17.49
2022-09-21T08:36:03.006Z,17.64
2022-09-21T08:37:06.300Z,17.72
2022-09-21T08:38:10.289Z,17.93
2022-09-21T08:39:13.367Z,17.99
2022-09-21T08:40:17.129Z,17.87
2022-09-21T08:41:20.460Z,18.25
2022-09-21T08:42:42.519Z,18.02
2022-09-21T08:43:51.943Z,18.02
2022-09-21T08:45:04.066Z,18.51
2022-09-21T08:46:15.713Z,18.28
2022-09-21T08:47:34.935Z,18.11
2022-09-21T08:48:46.455Z,18.09
2022-09-21T08:49:56.295Z,17.70
2022-09-21T08:51:06.538Z,18.29
2022-09-21T08:52:16.670Z,18.12
2022-09-21T08:53:27.300Z,18.06
2022-09-21T08:54:52.296Z,17.95
2022-09-21T08:55:58.432Z,18.38
2022-09-21T08:57:05.305Z,18.75
2022-09-21T08:58:28.627Z,18.14
2022-09-21T08:59:31.791Z,17.76
2022-09-21T09:00:40.364Z,17.54
2022-09-21T09:01:46.291Z,17.36
2022-09-21T09:03:16.606Z,17.97
2022-09-21T09:04:50.148Z,18.14
2022-09-21T09:06:00.292Z,17.32
2022-09-21T09:07:15.573Z,17.56
2022-09-21T09:08:42.926Z,17.63
2022-09-21T09:10:13.014Z,17.62
2022-09-21T09:11:27.941Z,17.77
2022-09-21T09:13:13.470Z,17.60
2022-09-21T09:14:35.257Z,17.89
2022-09-21T09:15:46.442Z,18.02
2022-09-21T09:16:57.480Z,17.71
2022-09-21T09:18:20.841Z,17.14
2022-09-21T09:19:34.919Z,16.87
2022-09-21T09:20:49.696Z,17.00
2022-09-21T09:21:52.743Z,16.82
2022-09-21T09:23:24.711Z,17.44
2022-09-21T09:24:56.363Z,17.66
2022-09-21T09:26:18.476Z,18.36
2022-09-21T09:27:28.606Z,18.40
2022-09-21T09:28:41.946Z,18.64
2022-09-21T09:30:02.648Z,18.93
2022-09-21T09:31:23.730Z,18.94
2022-09-21T09:32:59.219Z,19.01
2022-09-21T09:34:21.119Z,19.17
2022-09-21T09:35:33.730Z,19.32
2022-09-21T09:36:57.945Z,20.06
2022-09-21T09:38:48.439Z,19.90
2022-09-21T09:39:57.974Z,19.97
2022-09-21T09:41:12.680Z,20.32
2022-09-21T09:42:22.272Z,19.83
2022-09-21T09:43:49.214Z,19.88
2022-09-21T09:45:10.732Z,19.65
2022-09-21T09:46:33.608Z,19.32
2022-09-21T09:47:48.384Z,19.17
2022-09-21T09:49:06.520Z,19.69
2022-09-21T09:50:20.766Z,20.08
2022-09-21T09:51:24.091Z,19.52
2022-09-21T09:52:27.992Z,19.58
2022-09-21T09:53:31.913Z,19.94
2022-09-21T09:54:36.374Z,19.51
2022-09-21T09:55:49.745Z,19.30
2022-09-21T09:56:53.343Z,19.04
2022-09-21T09:57:56.827Z,19.13
2022-09-21T09:59:07.291Z,19.26
2022-09-21T10:00:15.118Z,19.46
2022-09-21T10:01:43.222Z,19.78
2022-09-21T10:02:55.461Z,20.31
2022-09-21T10:04:13.073Z,20.31
2022-09-21T10:05:38.559Z,20.38
2022-09-21T10:06:46.456Z,20.42
2022-09-21T10:07:52.424Z,19.94
2022-09-21T10:08:55.217Z,20.09
2022-09-21T10:09:58.210Z,19.55
2022-09-21T10:11:01.102Z,19.61
2022-09-21T10:12:19.308Z,19.51
2022-09-21T10:13:22.247Z,19.52
2022-09-21T10:14:33.134Z,19.39
2022-09-21T10:15:50.279Z,18.55
2022-09-21T10:16:56.525Z,18.73
2022-09-21T10:18:12.149Z,18.28
2022-09-21T10:19:19.301Z,18.55
2022-09-21T10:20:22.336Z,18.65
2022-09-21T10:21:27.079Z,18.74
2022-09-21T10:22:32.913Z,18.34
2022-09-21T10:23:37.513Z,18.27
2022-09-21T10:24:49.192Z,17.91
2022-09-21T10:26:04.315Z,17.85
2022-09-21T10:27:12.622Z,18.02
2022-09-21T10:28:23.986Z,18.21
2022-09-21T10:29:27.403Z,19.10
2022-09-21T10:30:31.272Z,19.75
2022-09-21T10:31:34.766Z,19.19
2022-09-21T10:32:57.087Z,18.89
2022-09-21T10:34:16.165Z,18.85
2022-09-21T10:35:19.601Z,18.63
2022-09-21T10:36:32.716Z,18.28
2022-09-21T10:37:42.373Z,17.41
2022-09-21T10:38:45.881Z,17.82
2022-09-21T10:39:48.853Z,18.22
2022-09-21T10:40:51.966Z,18.65
2022-09-21T10:41:59.671Z,18.70
2022-09-21T10:43:02.425Z,18.67
2022-09-21T10:44:16.640Z,18.95
2022-09-21T10:45:23.215Z,19.09
2022-09-21T10:46:36.224Z,18.63
2022-09-21T10:48:24.459Z,18.97
2022-09-21T10:49:29.200Z,19.64
2022-09-21T10:50:36.870Z,19.97
2022-09-21T10:51:39.980Z,19.69
2022-09-21T10:52:47.171Z,19.33
2022-09-21T10:53:53.818Z,19.75
2022-09-21T10:54:57.934Z,20.35
2022-09-21T10:56:17.787Z,20.76
2022-09-21T10:57:24.068Z,20.70
2022-09-21T10:58:29.895Z,20.25
2022-09-21T10:59:35.906Z,20.04
2022-09-21T11:00:45.270Z,19.62
2022-09-21T11:01:53.424Z,19.10
2022-09-21T11:03:01.336Z,19.22
2022-09-21T11:04:10.442Z,19.83
2022-09-21T11:05:23.762Z,20.32
2022-09-21T11:06:45.180Z,20.55
2022-09-21T11:08:11.129Z,21.14
2022-09-21T11:09:38.622Z,20.70
2022-09-21T11:11:21.673Z,20.25
2022-09-21T11:12:49.485Z,19.92
2022-09-21T11:14:01.543Z,19.77
2022-09-21T11:15:30.479Z,19.13
2022-09-21T11:17:12.792Z,19.19
2022-09-21T11:18:25.055Z,18.68
2022-09-21T11:19:43.242Z,18.23
2022-09-21T11:21:34.632Z,18.90
2022-09-21T11:22:57.412Z,19.65
2022-09-21T11:24:27.638Z,19.76
2022-09-21T11:25:50.859Z,20.27
2022-09-21T11:27:04.297Z,20.59
2022-09-21T11:28:14.102Z,20.94
2022-09-21T11:29:49.291Z,21.10
2022-09-21T11:30:58.196Z,21.07
2022-09-21T11:32:12.945Z,21.06
2022-09-21T11:33:31.769Z,21.28
2022-09-21T11:34:57.928Z,21.61
2022-09-21T11:36:30.150Z,21.28
2022-09-21T11:37:54.722Z,19.92
2022-09-21T11:39:15.537Z,19.21
2022-09-21T11:40:38.357Z,19.63
2022-09-21T11:42:08.722Z,20.30
2022-09-21T11:43:38.461Z,20.72
2022-09-21T11:44:59.852Z,21.09
2022-09-21T11:46:25.134Z,21.50
2022-09-21T11:48:06.134Z,21.63
2022-09-21T11:49:43.404Z,20.68
2022-09-21T11:51:08.071Z,19.90
2022-09-21T11:52:23.080Z,19.64
2022-09-21T11:53:39.343Z,18.80
2022-09-21T11:55:05.816Z,18.58
2022-09-21T11:56:31.759Z,18.15
2022-09-21T11:57:45.960Z,18.98
2022-09-21T11:59:19.031Z,18.47
2022-09-21T12:00:25.291Z,18.52
2022-09-21T12:01:37.021Z,19.46
2022-09-21T12:03:09.672Z,19.60
2022-09-21T12:04:31.164Z,19.43
2022-09-21T12:05:42.784Z,19.26
2022-09-21T12:06:52.268Z,19.75
2022-09-21T12:08:32.873Z,19.87
2022-09-21T12:10:10.411Z,20.21
2022-09-21T12:11:40.803Z,20.64
2022-09-21T12:12:49.847Z,21.15
2022-09-21T12:14:01.643Z,21.15
2022-09-21T12:15:20.756Z,21.38
2022-09-21T12:16:48.697Z,20.83
2022-09-21T12:17:58.876Z,20.75
2022-09-21T12:19:20.371Z,20.54
2022-09-21T12:20:35.600Z,19.66
2022-09-21T12:21:44.415Z,18.72
2022-09-21T12:22:50.682Z,18.25
2022-09-21T12:23:57.596Z,18.13
2022-09-21T12:25:07.615Z,18.11
2022-09-21T12:26:15.613Z,18.60
2022-09-21T12:27:43.025Z,19.28
2022-09-21T12:28:54.050Z,20.14
2022-09-21T12:30:03.410Z,20.25
2022-09-21T12:31:14.405Z,20.59
2022-09-21T12:32:53.592Z,20.85
2022-09-21T12:34:03.095Z,21.09
2022-09-21T12:35:14.057Z,21.13
2022-09-21T12:36:29.611Z,20.33
2022-09-21T12:37:41.342Z,19.31
2022-09-21T12:39:01.674Z,18.98
2022-09-21T12:40:14.151Z,18.37
2022-09-21T12:41:39.866Z,17.64
2022-09-21T12:42:47.307Z,17.42
2022-09-21T12:44:17.335Z,17.29
2022-09-21T12:45:22.660Z,16.71
2022-09-21T12:46:44.517Z,16.34
2022-09-21T12:48:26.354Z,16.26
2022-09-21T12:49:32.648Z,16.38
2022-09-21T12:50:46.778Z,16.43
2022-09-21T12:51:57.406Z,16.26
2022-09-21T12:53:00.682Z,16.04
2022-09-21T12:54:15.920Z,16.37
2022-09-21T12:55:31.930Z,16.74
2022-09-21T12:57:17.507Z,17.22
2022-09-21T12:58:53.774Z,17.45
2022-09-21T13:00:04.433Z,17.48
2022-09-21T13:01:13.682Z,17.64
2022-09-21T13:02:20.316Z,18.09
2022-09-21T13:04:10.378Z,18.44
2022-09-21T13:06:01.941Z,18.57
2022-09-21T13:07:33.189Z,19.05
2022-09-21T13:08:40.902Z,19.40
2022-09-21T13:09:46.502Z,19.76
2022-09-21T13:11:01.141Z,19.71
2022-09-21T13:12:16.121Z,19.65
2022-09-21T13:13:44.390Z,19.96
2022-09-21T13:14:51.794Z,20.19
2022-09-21T13:15:55.628Z,20.26
2022-09-21T13:17:03.451Z,20.31
2022-09-21T13:18:22.529Z,19.86
2022-09-21T13:19:27.413Z,19.94
2022-09-21T13:20:40.139Z,20.03
2022-09-21T13:21:44.429Z,20.14
2022-09-21T13:22:51.116Z,20.26
2022-09-21T13:24:04.640Z,20.75
2022-09-21T13:25:28.262Z,20.62
2022-09-21T13:26:51.498Z,21.18
2022-09-21T13:28:10.324Z,21.13
2022-09-21T13:29:28.101Z,21.17
2022-09-21T13:30:35.398Z,21.06
2022-09-21T13:31:41.785Z,20.85
2022-09-21T13:32:51.971Z,20.72
2022-09-21T13:34:06.907Z,20.61
2022-09-21T13:35:48.388Z,19.98
2022-09-21T13:37:16.909Z,19.82
2022-09-21T13:38:23.843Z,20.09
2022-09-21T13:39:27.489Z,20.50
2022-09-21T13:40:35.480Z,20.45
2022-09-21T13:41:59.372Z,20.59
2022-09-21T13:43:17.676Z,20.57
2022-09-21T13:44:41.917Z,20.12
2022-09-21T13:45:52.185Z,20.18
2022-09-21T13:46:55.405Z,20.08
2022-09-21T13:48:00.302Z,19.96
2022-09-21T13:49:15.674Z,19.78
2022-09-21T13:50:42.784Z,19.97
2022-09-21T13:51:54.312Z,19.95
2022-09-21T13:53:04.016Z,19.88
2022-09-21T13:54:06.833Z,19.96
2022-09-21T13:55:45.767Z,19.76
2022-09-21T13:57:00.290Z,19.92
2022-09-21T13:58:07.582Z,19.95
2022-09-21T13:59:24.233Z,19.64
2022-09-21T14:00:37.741Z,19.41
2022-09-21T14:01:48.184Z,19.38
2022-09-21T14:02:51.236Z,19.29
2022-09-21T14:04:04.262Z,19.41
2022-09-21T14:05:44.328Z,19.32
2022-09-21T14:06:50.102Z,19.02
2022-09-21T14:08:18.708Z,18.58
2022-09-21T14:09:29.420Z,18.18
2022-09-21T14:10:33.670Z,17.58
2022-09-21T14:11:40.641Z,17.55
2022-09-21T14:12:45.804Z,17.45
2022-09-21T14:14:03.227Z,17.11
2022-09-21T14:15:19.608Z,16.94
2022-09-21T14:16:28.129Z,17.25
2022-09-21T14:17:41.613Z,17.64
2022-09-21T14:18:46.698Z,18.09
2022-09-21T14:20:00.143Z,17.91
2022-09-21T14:21:17.438Z,18.17
2022-09-21T14:22:20.653Z,18.08
2022-09-21T14:23:23.213Z,18.46
2022-09-21T14:24:38.546Z,18.41
2022-09-21T14:25:53.278Z,18.29
2022-09-21T14:27:03.375Z,18.36
2022-09-21T14:28:13.467Z,18.50
2022-09-21T14:29:44.827Z,18.19
2022-09-21T14:30:56.436Z,18.13
2022-09-21T14:32:03.160Z,18.18
2022-09-21T14:33:31.774Z,18.47
2022-09-21T14:34:37.667Z,18.36
2022-09-21T14:35:47.600Z,18.11
2022-09-21T14:36:54.470Z,17.94
2022-09-21T14:38:11.057Z,17.99
2022-09-21T14:39:29.500Z,17.73
2022-09-21T14:40:38.871Z,17.85
2022-09-21T14:41:47.393Z,17.98
2022-09-21T14:42:50.671Z,18.14
2022-09-21T14:43:56.870Z,18.16
2022-09-21T14:45:02.436Z,18.24
2022-09-21T14:46:21.471Z,18.18
2022-09-21T14:47:53.412Z,18.26
2022-09-21T14:49:26.868Z,18.10
2022-09-21T14:50:57.840Z,17.98
2022-09-21T14:52:18.234Z,18.00
2022-09-21T14:53:32.726Z,17.93
2022-09-21T14:54:47.979Z,17.95
2022-09-21T14:56:26.128Z,18.02
2022-09-21T14:57:37.743Z,17.80
2022-09-21T14:58:46.995Z,17.39
2022-09-21T14:59:59.151Z,17.15
2022-09-21T15:01:35.519Z,17.18
2022-09-21T15:02:38.156Z,17.54
2022-09-21T15:04:02.880Z,17.53
2022-09-21T15:05:08.372Z,17.36
2022-09-21T15:07:03.915Z,17.04
2022-09-21T15:08:48.894Z,17.07
2022-09-21T15:10:32.185Z,17.25
2022-09-21T15:11:44.289Z,17.13
2022-09-21T15:12:58.576Z,17.23
2022-09-21T15:14:32.889Z,17.05
2022-09-21T15:15:53.317Z,16.75
2022-09-21T15:16:56.021Z,16.75
2022-09-21T15:18:00.851Z,16.66
2022-09-21T15:19:13.100Z,16.62
2022-09-21T15:20:23.742Z,16.73
2022-09-21T15:21:29.412Z,16.65
2022-09-21T15:22:32.756Z,16.41
2022-09-21T15:23:42.199Z,16.42
2022-09-21T15:24:54.679Z,16.68
2022-09-21T15:26:16.406Z,16.64
2022-09-21T15:27:22.926Z,16.65
2022-09-21T15:28:41.796Z,16.68
2022-09-21T15:29:56.880Z,16.65